sensor_id;sensor_type;location;lat;lon;timestamp;pressure;altitude;pressure_sealevel;temperature;humidity
72262;BME280;60173;52.112;8.648;2023-01-31T00:01:28;101149.53;;;2.92;88.35
72262;BME280;60173;52.112;8.648;2023-01-31T00:04:02;101159.81;;;2.95;88.23
72262;BME280;60173;52.112;8.648;2023-01-31T00:06:31;101142.91;;;3.06;87.92
72262;BME280;60173;52.112;8.648;2023-01-31T00:08:59;101143.63;;;3.13;87.78
72262;BME280;60173;52.112;8.648;2023-01-31T00:11:26;101143.63;;;3.13;87.86
72262;BME280;60173;52.112;8.648;2023-01-31T00:13:53;101152.50;;;3.26;87.66
72262;BME280;60173;52.112;8.648;2023-01-31T00:16:21;101151.91;;;3.35;87.37
72262;BME280;60173;52.112;8.648;2023-01-31T00:18:47;101144.94;;;3.46;86.77
72262;BME280;60173;52.112;8.648;2023-01-31T00:21:16;101163.25;;;3.49;86.50
72262;BME280;60173;52.112;8.648;2023-01-31T00:23:43;101152.84;;;3.53;86.26
72262;BME280;60173;52.112;8.648;2023-01-31T00:26:19;101158.00;;;3.54;86.32
72262;BME280;60173;52.112;8.648;2023-01-31T00:28:47;101155.91;;;3.45;86.76
72262;BME280;60173;52.112;8.648;2023-01-31T00:31:15;101155.78;;;3.51;86.26
72262;BME280;60173;52.112;8.648;2023-01-31T00:33:43;101153.31;;;3.61;86.71
72262;BME280;60173;52.112;8.648;2023-01-31T00:36:13;101150.41;;;3.51;86.47
72262;BME280;60173;52.112;8.648;2023-01-31T00:38:41;101131.75;;;3.56;86.42
72262;BME280;60173;52.112;8.648;2023-01-31T00:41:08;101135.13;;;3.52;86.60
72262;BME280;60173;52.112;8.648;2023-01-31T00:43:34;101134.44;;;3.45;87.06
72262;BME280;60173;52.112;8.648;2023-01-31T00:46:02;101137.34;;;3.43;87.38
72262;BME280;60173;52.112;8.648;2023-01-31T00:48:29;101146.66;;;3.64;86.65
72262;BME280;60173;52.112;8.648;2023-01-31T00:50:55;101144.69;;;3.59;86.71
72262;BME280;60173;52.112;8.648;2023-01-31T00:53:22;101144.81;;;3.65;86.85
72262;BME280;60173;52.112;8.648;2023-01-31T00:55:50;101145.72;;;3.58;87.29
72262;BME280;60173;52.112;8.648;2023-01-31T00:58:17;101144.22;;;3.62;86.95
72262;BME280;60173;52.112;8.648;2023-01-31T01:00:44;101147.63;;;3.46;87.65
72262;BME280;60173;52.112;8.648;2023-01-31T01:03:10;101154.63;;;3.47;88.02
72262;BME280;60173;52.112;8.648;2023-01-31T01:05:37;101159.28;;;3.40;88.10
72262;BME280;60173;52.112;8.648;2023-01-31T01:08:03;101154.84;;;3.22;88.59
72262;BME280;60173;52.112;8.648;2023-01-31T01:10:30;101153.69;;;3.30;88.61
72262;BME280;60173;52.112;8.648;2023-01-31T01:12:57;101157.28;;;3.35;88.80
72262;BME280;60173;52.112;8.648;2023-01-31T01:15:23;101163.72;;;3.46;88.39
72262;BME280;60173;52.112;8.648;2023-01-31T01:17:50;101162.91;;;3.46;88.08
72262;BME280;60173;52.112;8.648;2023-01-31T01:20:16;101165.00;;;3.44;88.17
72262;BME280;60173;52.112;8.648;2023-01-31T01:22:42;101169.09;;;3.46;88.24
72262;BME280;60173;52.112;8.648;2023-01-31T01:25:09;101168.41;;;3.51;87.93
72262;BME280;60173;52.112;8.648;2023-01-31T01:27:35;101175.19;;;3.42;88.21
72262;BME280;60173;52.112;8.648;2023-01-31T01:30:03;101164.78;;;3.45;88.36
72262;BME280;60173;52.112;8.648;2023-01-31T01:32:29;101162.66;;;3.35;88.66
72262;BME280;60173;52.112;8.648;2023-01-31T01:34:56;101160.44;;;3.32;88.84
72262;BME280;60173;52.112;8.648;2023-01-31T01:37:22;101168.75;;;3.31;88.76
72262;BME280;60173;52.112;8.648;2023-01-31T01:39:49;101161.72;;;3.18;89.05
72262;BME280;60173;52.112;8.648;2023-01-31T01:42:21;101167.53;;;3.15;89.40
72262;BME280;60173;52.112;8.648;2023-01-31T01:44:52;101173.38;;;3.12;89.23
72262;BME280;60173;52.112;8.648;2023-01-31T01:53:01;101168.28;;;3.22;89.13
72262;BME280;60173;52.112;8.648;2023-01-31T01:55:39;101180.28;;;3.20;88.87
72262;BME280;60173;52.112;8.648;2023-01-31T02:00:37;101185.66;;;3.20;89.16
72262;BME280;60173;52.112;8.648;2023-01-31T02:03:05;101185.31;;;3.16;89.61
72262;BME280;60173;52.112;8.648;2023-01-31T02:05:38;101186.59;;;3.13;89.24
72262;BME280;60173;52.112;8.648;2023-01-31T02:08:05;101186.69;;;3.07;90.03
72262;BME280;60173;52.112;8.648;2023-01-31T02:10:41;101189.03;;;3.27;89.10
72262;BME280;60173;52.112;8.648;2023-01-31T02:13:10;101196.28;;;3.26;89.08
72262;BME280;60173;52.112;8.648;2023-01-31T02:15:37;101198.16;;;3.26;89.08
72262;BME280;60173;52.112;8.648;2023-01-31T02:18:04;101217.78;;;3.38;88.53
72262;BME280;60173;52.112;8.648;2023-01-31T02:20:36;101219.75;;;3.31;88.72
72262;BME280;60173;52.112;8.648;2023-01-31T02:26:35;101218.94;;;3.19;88.43
72262;BME280;60173;52.112;8.648;2023-01-31T02:32:19;101214.53;;;2.94;89.29
72262;BME280;60173;52.112;8.648;2023-01-31T02:43:10;101218.19;;;2.69;89.81
72262;BME280;60173;52.112;8.648;2023-01-31T02:46:01;101222.69;;;2.39;90.68
72262;BME280;60173;52.112;8.648;2023-01-31T02:48:57;101231.94;;;2.24;91.13
72262;BME280;60173;52.112;8.648;2023-01-31T02:51:34;101223.97;;;2.18;91.51
72262;BME280;60173;52.112;8.648;2023-01-31T02:54:12;101222.69;;;2.02;92.39
72262;BME280;60173;52.112;8.648;2023-01-31T02:56:42;101229.69;;;2.03;92.80
72262;BME280;60173;52.112;8.648;2023-01-31T03:01:44;101219.44;;;2.18;92.40
72262;BME280;60173;52.112;8.648;2023-01-31T03:04:13;101228.00;;;2.09;92.20
72262;BME280;60173;52.112;8.648;2023-01-31T03:11:46;101211.69;;;1.92;92.72
72262;BME280;60173;52.112;8.648;2023-01-31T03:14:28;101211.31;;;1.88;93.17
72262;BME280;60173;52.112;8.648;2023-01-31T03:17:03;101220.38;;;1.87;93.16
72262;BME280;60173;52.112;8.648;2023-01-31T03:19:40;101209.28;;;1.84;93.57
72262;BME280;60173;52.112;8.648;2023-01-31T03:22:12;101208.50;;;1.76;93.79
72262;BME280;60173;52.112;8.648;2023-01-31T03:24:42;101194.09;;;1.77;93.73
72262;BME280;60173;52.112;8.648;2023-01-31T03:27:09;101206.81;;;1.82;93.60
72262;BME280;60173;52.112;8.648;2023-01-31T03:29:37;101198.13;;;1.87;93.55
72262;BME280;60173;52.112;8.648;2023-01-31T03:32:20;101192.63;;;2.00;92.82
72262;BME280;60173;52.112;8.648;2023-01-31T03:34:49;101183.84;;;2.11;92.58
72262;BME280;60173;52.112;8.648;2023-01-31T03:37:36;101179.81;;;2.02;92.55
72262;BME280;60173;52.112;8.648;2023-01-31T03:40:08;101172.81;;;2.01;92.57
72262;BME280;60173;52.112;8.648;2023-01-31T03:45:27;101169.09;;;2.02;92.37
72262;BME280;60173;52.112;8.648;2023-01-31T03:47:56;101162.13;;;2.01;92.60
72262;BME280;60173;52.112;8.648;2023-01-31T03:50:28;101163.28;;;2.05;92.36
72262;BME280;60173;52.112;8.648;2023-01-31T03:53:06;101155.69;;;2.02;92.43
72262;BME280;60173;52.112;8.648;2023-01-31T03:55:40;101157.19;;;1.98;92.66
72262;BME280;60173;52.112;8.648;2023-01-31T03:58:10;101165.44;;;1.96;92.62
72262;BME280;60173;52.112;8.648;2023-01-31T04:00:40;101164.94;;;1.88;92.57
72262;BME280;60173;52.112;8.648;2023-01-31T04:03:16;101148.56;;;1.77;92.61
72262;BME280;60173;52.112;8.648;2023-01-31T04:05:44;101157.78;;;1.63;93.20
72262;BME280;60173;52.112;8.648;2023-01-31T04:08:10;101145.81;;;1.66;93.42
72262;BME280;60173;52.112;8.648;2023-01-31T04:10:37;101138.28;;;1.56;93.61
72262;BME280;60173;52.112;8.648;2023-01-31T04:13:03;101149.59;;;1.58;94.05
72262;BME280;60173;52.112;8.648;2023-01-31T04:15:30;101146.03;;;1.64;94.12
72262;BME280;60173;52.112;8.648;2023-01-31T04:17:56;101146.78;;;1.71;93.59
72262;BME280;60173;52.112;8.648;2023-01-31T04:20:23;101147.59;;;1.72;93.82
72262;BME280;60173;52.112;8.648;2023-01-31T04:22:49;101146.34;;;1.74;93.72
72262;BME280;60173;52.112;8.648;2023-01-31T04:25:15;101147.31;;;1.80;93.65
72262;BME280;60173;52.112;8.648;2023-01-31T04:27:42;101145.00;;;1.84;93.85
72262;BME280;60173;52.112;8.648;2023-01-31T04:30:08;101150.13;;;2.03;93.13
72262;BME280;60173;52.112;8.648;2023-01-31T04:32:35;101146.75;;;2.08;92.87
72262;BME280;60173;52.112;8.648;2023-01-31T04:35:02;101153.19;;;2.07;92.72
72262;BME280;60173;52.112;8.648;2023-01-31T04:37:28;101147.22;;;2.23;92.17
72262;BME280;60173;52.112;8.648;2023-01-31T04:39:54;101145.94;;;2.26;91.78
72262;BME280;60173;52.112;8.648;2023-01-31T04:42:21;101138.72;;;2.26;91.31
72262;BME280;60173;52.112;8.648;2023-01-31T04:44:47;101144.53;;;2.23;91.61
72262;BME280;60173;52.112;8.648;2023-01-31T04:47:13;101138.34;;;2.23;91.25
72262;BME280;60173;52.112;8.648;2023-01-31T04:49:40;101137.09;;;2.07;91.80
72262;BME280;60173;52.112;8.648;2023-01-31T04:52:06;101131.69;;;2.25;91.83
72262;BME280;60173;52.112;8.648;2023-01-31T04:54:32;101134.88;;;2.34;91.37
72262;BME280;60173;52.112;8.648;2023-01-31T04:56:59;101131.50;;;2.27;91.46
72262;BME280;60173;52.112;8.648;2023-01-31T04:59:25;101134.31;;;2.32;91.02
72262;BME280;60173;52.112;8.648;2023-01-31T05:01:51;101123.34;;;2.34;90.95
72262;BME280;60173;52.112;8.648;2023-01-31T05:04:18;101127.53;;;2.30;91.33
72262;BME280;60173;52.112;8.648;2023-01-31T05:06:44;101127.09;;;2.33;91.37
72262;BME280;60173;52.112;8.648;2023-01-31T05:09:10;101124.88;;;2.30;91.38
72262;BME280;60173;52.112;8.648;2023-01-31T05:11:37;101125.63;;;2.18;91.97
72262;BME280;60173;52.112;8.648;2023-01-31T05:14:03;101122.34;;;2.16;92.04
72262;BME280;60173;52.112;8.648;2023-01-31T05:16:30;101123.09;;;2.23;91.80
72262;BME280;60173;52.112;8.648;2023-01-31T05:18:56;101121.59;;;2.28;91.47
72262;BME280;60173;52.112;8.648;2023-01-31T05:21:23;101109.53;;;2.18;91.66
72262;BME280;60173;52.112;8.648;2023-01-31T05:23:49;101107.38;;;2.27;91.42
72262;BME280;60173;52.112;8.648;2023-01-31T05:26:15;101091.19;;;2.34;91.20
72262;BME280;60173;52.112;8.648;2023-01-31T05:28:42;101085.75;;;2.40;90.91
72262;BME280;60173;52.112;8.648;2023-01-31T05:31:08;101083.56;;;2.49;90.59
72262;BME280;60173;52.112;8.648;2023-01-31T05:33:35;101077.81;;;2.45;90.63
72262;BME280;60173;52.112;8.648;2023-01-31T05:36:02;101084.03;;;2.46;90.79
72262;BME280;60173;52.112;8.648;2023-01-31T05:38:29;101085.03;;;2.45;90.71
72262;BME280;60173;52.112;8.648;2023-01-31T05:40:55;101081.13;;;2.59;90.17
72262;BME280;60173;52.112;8.648;2023-01-31T05:43:21;101092.19;;;2.63;89.88
72262;BME280;60173;52.112;8.648;2023-01-31T05:45:48;101084.44;;;2.73;89.93
72262;BME280;60173;52.112;8.648;2023-01-31T05:48:14;101083.84;;;2.83;89.05
72262;BME280;60173;52.112;8.648;2023-01-31T05:50:41;101088.19;;;2.84;89.04
72262;BME280;60173;52.112;8.648;2023-01-31T05:53:07;101094.91;;;2.75;89.39
72262;BME280;60173;52.112;8.648;2023-01-31T05:55:33;101082.34;;;2.75;89.35
72262;BME280;60173;52.112;8.648;2023-01-31T05:58:00;101078.25;;;2.84;89.11
72262;BME280;60173;52.112;8.648;2023-01-31T06:00:27;101076.38;;;2.85;89.04
72262;BME280;60173;52.112;8.648;2023-01-31T06:02:56;101074.31;;;2.87;89.21
72262;BME280;60173;52.112;8.648;2023-01-31T06:05:23;101078.00;;;2.86;89.31
72262;BME280;60173;52.112;8.648;2023-01-31T06:07:49;101074.31;;;2.87;89.32
72262;BME280;60173;52.112;8.648;2023-01-31T06:10:16;101069.88;;;3.04;89.13
72262;BME280;60173;52.112;8.648;2023-01-31T06:12:44;101079.78;;;3.04;88.89
72262;BME280;60173;52.112;8.648;2023-01-31T06:15:11;101073.84;;;3.13;88.78
72262;BME280;60173;52.112;8.648;2023-01-31T06:17:37;101065.53;;;3.03;89.07
72262;BME280;60173;52.112;8.648;2023-01-31T06:20:04;101071.97;;;3.02;89.51
72262;BME280;60173;52.112;8.648;2023-01-31T06:22:30;101064.97;;;3.01;89.54
72262;BME280;60173;52.112;8.648;2023-01-31T06:24:57;101064.41;;;2.99;89.67
72262;BME280;60173;52.112;8.648;2023-01-31T06:27:23;101063.25;;;3.07;89.90
72262;BME280;60173;52.112;8.648;2023-01-31T06:29:50;101061.25;;;3.02;89.90
72262;BME280;60173;52.112;8.648;2023-01-31T06:32:16;101054.94;;;2.97;90.35
72262;BME280;60173;52.112;8.648;2023-01-31T06:34:42;101054.47;;;3.11;90.35
72262;BME280;60173;52.112;8.648;2023-01-31T06:37:09;101059.84;;;3.11;89.99
72262;BME280;60173;52.112;8.648;2023-01-31T06:39:35;101064.84;;;3.31;89.18
72262;BME280;60173;52.112;8.648;2023-01-31T06:42:02;101073.97;;;3.30;89.10
72262;BME280;60173;52.112;8.648;2023-01-31T06:44:28;101066.84;;;3.36;88.79
72262;BME280;60173;52.112;8.648;2023-01-31T06:46:55;101064.25;;;3.41;88.68
72262;BME280;60173;52.112;8.648;2023-01-31T06:49:21;101056.56;;;3.45;88.75
72262;BME280;60173;52.112;8.648;2023-01-31T06:51:47;101064.13;;;3.48;88.60
72262;BME280;60173;52.112;8.648;2023-01-31T06:54:14;101070.22;;;3.43;88.36
72262;BME280;60173;52.112;8.648;2023-01-31T06:56:40;101058.06;;;3.40;88.97
72262;BME280;60173;52.112;8.648;2023-01-31T06:59:06;101054.81;;;3.38;88.95
72262;BME280;60173;52.112;8.648;2023-01-31T07:01:33;101054.41;;;3.58;88.31
72262;BME280;60173;52.112;8.648;2023-01-31T07:03:59;101061.44;;;3.59;88.38
72262;BME280;60173;52.112;8.648;2023-01-31T07:06:25;101060.97;;;3.62;88.07
72262;BME280;60173;52.112;8.648;2023-01-31T07:08:52;101052.06;;;3.74;87.33
72262;BME280;60173;52.112;8.648;2023-01-31T07:11:18;101050.56;;;3.66;87.28
72262;BME280;60173;52.112;8.648;2023-01-31T07:13:45;101043.19;;;3.61;87.41
72262;BME280;60173;52.112;8.648;2023-01-31T07:16:11;101043.13;;;3.45;88.02
72262;BME280;60173;52.112;8.648;2023-01-31T07:18:37;101032.59;;;3.55;87.43
72262;BME280;60173;52.112;8.648;2023-01-31T07:21:04;101040.75;;;3.60;87.42
72262;BME280;60173;52.112;8.648;2023-01-31T07:23:30;101025.94;;;3.57;87.65
72262;BME280;60173;52.112;8.648;2023-01-31T07:25:57;101018.16;;;3.73;86.84
72262;BME280;60173;52.112;8.648;2023-01-31T07:28:23;101015.59;;;3.78;86.50
72262;BME280;60173;52.112;8.648;2023-01-31T07:30:50;101018.38;;;3.83;85.96
72262;BME280;60173;52.112;8.648;2023-01-31T07:33:17;101021.53;;;3.80;86.16
72262;BME280;60173;52.112;8.648;2023-01-31T07:35:44;101027.63;;;3.75;86.39
72262;BME280;60173;52.112;8.648;2023-01-31T07:38:10;101009.88;;;3.74;85.79
72262;BME280;60173;52.112;8.648;2023-01-31T07:40:36;101013.09;;;3.88;85.74
72262;BME280;60173;52.112;8.648;2023-01-31T07:43:03;101004.56;;;3.91;85.54
72262;BME280;60173;52.112;8.648;2023-01-31T07:45:29;101005.31;;;3.75;86.12
72262;BME280;60173;52.112;8.648;2023-01-31T07:47:57;100991.66;;;3.76;86.17
72262;BME280;60173;52.112;8.648;2023-01-31T07:50:23;100994.91;;;3.78;86.17
72262;BME280;60173;52.112;8.648;2023-01-31T07:52:49;100997.25;;;3.75;86.25
72262;BME280;60173;52.112;8.648;2023-01-31T07:55:16;100994.78;;;3.85;86.28
72262;BME280;60173;52.112;8.648;2023-01-31T07:57:42;100991.69;;;3.93;86.05
72262;BME280;60173;52.112;8.648;2023-01-31T08:00:09;100990.75;;;3.99;85.58
72262;BME280;60173;52.112;8.648;2023-01-31T08:02:35;100986.72;;;4.02;85.37
72262;BME280;60173;52.112;8.648;2023-01-31T08:05:02;100986.41;;;3.98;85.65
72262;BME280;60173;52.112;8.648;2023-01-31T08:07:29;100975.91;;;3.97;85.56
72262;BME280;60173;52.112;8.648;2023-01-31T08:09:55;100975.75;;;4.03;85.63
72262;BME280;60173;52.112;8.648;2023-01-31T08:12:22;100969.41;;;4.10;85.55
72262;BME280;60173;52.112;8.648;2023-01-31T08:14:48;100975.09;;;4.13;85.42
72262;BME280;60173;52.112;8.648;2023-01-31T08:17:14;100971.50;;;4.07;85.09
72262;BME280;60173;52.112;8.648;2023-01-31T08:19:41;100976.09;;;4.07;85.80
72262;BME280;60173;52.112;8.648;2023-01-31T08:22:07;100960.94;;;4.18;85.09
72262;BME280;60173;52.112;8.648;2023-01-31T08:24:33;100949.78;;;4.09;85.21
72262;BME280;60173;52.112;8.648;2023-01-31T08:27:00;100947.41;;;4.13;85.55
72262;BME280;60173;52.112;8.648;2023-01-31T08:29:26;100946.84;;;4.27;85.55
72262;BME280;60173;52.112;8.648;2023-01-31T08:31:53;100939.59;;;4.28;85.08
72262;BME280;60173;52.112;8.648;2023-01-31T08:34:20;100929.09;;;4.43;84.56
72262;BME280;60173;52.112;8.648;2023-01-31T08:36:46;100916.47;;;4.44;83.76
72262;BME280;60173;52.112;8.648;2023-01-31T08:39:12;100912.66;;;4.40;84.42
72262;BME280;60173;52.112;8.648;2023-01-31T08:41:39;100910.41;;;4.37;84.27
72262;BME280;60173;52.112;8.648;2023-01-31T08:44:05;100909.47;;;4.43;83.98
72262;BME280;60173;52.112;8.648;2023-01-31T08:46:34;100900.63;;;4.47;83.93
72262;BME280;60173;52.112;8.648;2023-01-31T08:49:03;100899.34;;;4.33;84.48
72262;BME280;60173;52.112;8.648;2023-01-31T08:51:30;100906.03;;;4.30;85.21
72262;BME280;60173;52.112;8.648;2023-01-31T08:53:57;100913.88;;;4.32;86.18
72262;BME280;60173;52.112;8.648;2023-01-31T08:56:24;100913.78;;;4.27;87.55
72262;BME280;60173;52.112;8.648;2023-01-31T08:58:51;100897.56;;;4.22;87.87
72262;BME280;60173;52.112;8.648;2023-01-31T09:01:19;100916.63;;;4.20;88.47
72262;BME280;60173;52.112;8.648;2023-01-31T09:03:46;100908.81;;;4.19;89.10
72262;BME280;60173;52.112;8.648;2023-01-31T09:06:18;100916.13;;;4.06;89.15
72262;BME280;60173;52.112;8.648;2023-01-31T09:08:45;100894.22;;;4.15;89.08
72262;BME280;60173;52.112;8.648;2023-01-31T09:11:13;100887.78;;;4.16;89.59
72262;BME280;60173;52.112;8.648;2023-01-31T09:13:40;100892.53;;;4.08;89.97
72262;BME280;60173;52.112;8.648;2023-01-31T09:16:08;100884.94;;;4.05;89.67
72262;BME280;60173;52.112;8.648;2023-01-31T09:18:36;100875.91;;;3.95;90.22
72262;BME280;60173;52.112;8.648;2023-01-31T09:21:12;100867.94;;;4.00;90.53
72262;BME280;60173;52.112;8.648;2023-01-31T09:23:39;100872.88;;;3.91;91.29
72262;BME280;60173;52.112;8.648;2023-01-31T09:26:09;100868.31;;;3.92;91.74
72262;BME280;60173;52.112;8.648;2023-01-31T09:28:36;100876.56;;;3.85;92.00
72262;BME280;60173;52.112;8.648;2023-01-31T09:31:08;100865.31;;;3.88;92.11
72262;BME280;60173;52.112;8.648;2023-01-31T09:33:35;100864.53;;;3.76;92.39
72262;BME280;60173;52.112;8.648;2023-01-31T09:36:07;100863.50;;;3.77;93.27
72262;BME280;60173;52.112;8.648;2023-01-31T09:38:35;100869.28;;;3.69;93.65
72262;BME280;60173;52.112;8.648;2023-01-31T09:41:04;100867.06;;;3.66;93.73
72262;BME280;60173;52.112;8.648;2023-01-31T09:43:38;100855.84;;;3.69;93.69
72262;BME280;60173;52.112;8.648;2023-01-31T09:46:10;100859.66;;;3.73;93.50
72262;BME280;60173;52.112;8.648;2023-01-31T09:48:41;100865.47;;;3.65;93.41
72262;BME280;60173;52.112;8.648;2023-01-31T09:51:11;100881.00;;;3.62;93.53
72262;BME280;60173;52.112;8.648;2023-01-31T09:53:39;100876.75;;;3.67;93.54
72262;BME280;60173;52.112;8.648;2023-01-31T09:56:18;100874.22;;;3.60;93.68
72262;BME280;60173;52.112;8.648;2023-01-31T10:01:25;100874.06;;;3.67;93.37
72262;BME280;60173;52.112;8.648;2023-01-31T10:04:06;100870.25;;;3.62;93.66
72262;BME280;60173;52.112;8.648;2023-01-31T10:06:47;100865.63;;;3.75;93.10
72262;BME280;60173;52.112;8.648;2023-01-31T10:09:44;100868.22;;;3.87;92.36
72262;BME280;60173;52.112;8.648;2023-01-31T10:12:49;100859.19;;;3.76;92.76
72262;BME280;60173;52.112;8.648;2023-01-31T10:18:07;100861.38;;;3.79;92.20
72262;BME280;60173;52.112;8.648;2023-01-31T10:20:48;100852.59;;;3.83;91.98
72262;BME280;60173;52.112;8.648;2023-01-31T10:23:39;100844.47;;;3.95;92.13
72262;BME280;60173;52.112;8.648;2023-01-31T10:26:15;100847.38;;;4.11;91.57
72262;BME280;60173;52.112;8.648;2023-01-31T10:28:52;100848.44;;;4.10;91.47
72262;BME280;60173;52.112;8.648;2023-01-31T10:34:24;100839.56;;;4.09;91.40
72262;BME280;60173;52.112;8.648;2023-01-31T10:36:58;100842.34;;;4.14;90.91
72262;BME280;60173;52.112;8.648;2023-01-31T10:39:30;100820.59;;;3.99;90.81
72262;BME280;60173;52.112;8.648;2023-01-31T10:47:11;100815.56;;;4.02;91.42
72262;BME280;60173;52.112;8.648;2023-01-31T10:49:58;100807.91;;;4.11;90.65
72262;BME280;60173;52.112;8.648;2023-01-31T10:52:38;100807.63;;;4.13;90.50
72262;BME280;60173;52.112;8.648;2023-01-31T10:55:20;100798.75;;;4.12;90.47
72262;BME280;60173;52.112;8.648;2023-01-31T10:57:51;100783.81;;;4.21;90.34
72262;BME280;60173;52.112;8.648;2023-01-31T11:00:21;100781.91;;;4.17;90.26
72262;BME280;60173;52.112;8.648;2023-01-31T11:02:48;100788.16;;;4.22;90.07
72262;BME280;60173;52.112;8.648;2023-01-31T11:05:18;100771.91;;;4.34;90.07
72262;BME280;60173;52.112;8.648;2023-01-31T11:07:46;100761.66;;;4.31;90.05
72262;BME280;60173;52.112;8.648;2023-01-31T11:12:53;100763.84;;;4.34;90.76
72262;BME280;60173;52.112;8.648;2023-01-31T11:15:23;100762.47;;;4.32;90.73
72262;BME280;60173;52.112;8.648;2023-01-31T11:17:50;100747.75;;;4.39;90.66
72262;BME280;60173;52.112;8.648;2023-01-31T11:20:23;100724.81;;;4.32;90.71
72262;BME280;60173;52.112;8.648;2023-01-31T11:22:51;100725.22;;;4.40;90.77
72262;BME280;60173;52.112;8.648;2023-01-31T11:25:20;100710.75;;;4.46;90.80
72262;BME280;60173;52.112;8.648;2023-01-31T11:27:48;100709.59;;;4.42;90.76
72262;BME280;60173;52.112;8.648;2023-01-31T11:30:34;100724.69;;;4.43;90.93
72262;BME280;60173;52.112;8.648;2023-01-31T11:33:01;100723.63;;;4.44;90.49
72262;BME280;60173;52.112;8.648;2023-01-31T11:35:30;100730.81;;;4.39;90.51
72262;BME280;60173;52.112;8.648;2023-01-31T11:38:02;100740.41;;;4.51;90.38
72262;BME280;60173;52.112;8.648;2023-01-31T11:40:41;100731.75;;;4.49;89.95
72262;BME280;60173;52.112;8.648;2023-01-31T11:45:55;100708.16;;;4.57;89.52
72262;BME280;60173;52.112;8.648;2023-01-31T11:48:24;100716.56;;;4.60;89.47
72262;BME280;60173;52.112;8.648;2023-01-31T11:50:55;100713.19;;;4.48;89.64
72262;BME280;60173;52.112;8.648;2023-01-31T11:53:30;100706.25;;;4.52;89.92
72262;BME280;60173;52.112;8.648;2023-01-31T11:56:13;100719.06;;;4.45;90.56
72262;BME280;60173;52.112;8.648;2023-01-31T11:58:41;100718.81;;;4.46;90.74
72262;BME280;60173;52.112;8.648;2023-01-31T12:01:15;100704.88;;;4.49;90.29
72262;BME280;60173;52.112;8.648;2023-01-31T12:03:47;100716.00;;;4.36;90.78
72262;BME280;60173;52.112;8.648;2023-01-31T12:06:35;100709.09;;;4.45;90.41
72262;BME280;60173;52.112;8.648;2023-01-31T12:09:20;100693.34;;;4.54;89.96
72262;BME280;60173;52.112;8.648;2023-01-31T12:11:55;100680.16;;;4.52;90.08
72262;BME280;60173;52.112;8.648;2023-01-31T12:14:22;100679.41;;;4.57;89.84
72262;BME280;60173;52.112;8.648;2023-01-31T12:16:48;100665.53;;;4.43;90.50
72262;BME280;60173;52.112;8.648;2023-01-31T12:19:34;100664.03;;;4.52;90.47
72262;BME280;60173;52.112;8.648;2023-01-31T12:22:14;100657.63;;;4.59;90.05
72262;BME280;60173;52.112;8.648;2023-01-31T12:24:47;100651.16;;;4.60;89.91
72262;BME280;60173;52.112;8.648;2023-01-31T12:35:43;100640.81;;;4.46;91.01
72262;BME280;60173;52.112;8.648;2023-01-31T12:41:31;100652.81;;;4.61;91.43
72262;BME280;60173;52.112;8.648;2023-01-31T12:44:27;100657.38;;;4.60;91.37
72262;BME280;60173;52.112;8.648;2023-01-31T12:47:17;100658.69;;;4.58;92.16
72262;BME280;60173;52.112;8.648;2023-01-31T12:50:19;100667.22;;;4.49;93.04
72262;BME280;60173;52.112;8.648;2023-01-31T12:53:11;100660.41;;;4.42;93.68
72262;BME280;60173;52.112;8.648;2023-01-31T12:55:49;100671.66;;;4.39;94.52
72262;BME280;60173;52.112;8.648;2023-01-31T12:58:39;100666.56;;;4.42;94.61
72262;BME280;60173;52.112;8.648;2023-01-31T13:01:10;100666.41;;;4.49;94.60
72262;BME280;60173;52.112;8.648;2023-01-31T13:06:29;100678.34;;;4.36;95.58
72262;BME280;60173;52.112;8.648;2023-01-31T13:09:27;100674.91;;;4.41;95.81
72262;BME280;60173;52.112;8.648;2023-01-31T13:12:08;100671.59;;;4.34;96.04
72262;BME280;60173;52.112;8.648;2023-01-31T13:14:57;100667.22;;;4.49;95.91
72262;BME280;60173;52.112;8.648;2023-01-31T13:17:27;100665.91;;;4.52;95.99
72262;BME280;60173;52.112;8.648;2023-01-31T13:19:56;100668.28;;;4.48;95.98
72262;BME280;60173;52.112;8.648;2023-01-31T13:22:28;100667.50;;;4.53;96.20
72262;BME280;60173;52.112;8.648;2023-01-31T13:25:15;100666.84;;;4.68;96.03
72262;BME280;60173;52.112;8.648;2023-01-31T13:27:51;100671.00;;;4.53;95.93
72262;BME280;60173;52.112;8.648;2023-01-31T13:30:35;100668.16;;;4.60;96.33
72262;BME280;60173;52.112;8.648;2023-01-31T13:33:20;100652.81;;;4.61;96.35
72262;BME280;60173;52.112;8.648;2023-01-31T13:35:58;100656.88;;;4.63;96.61
72262;BME280;60173;52.112;8.648;2023-01-31T13:38:35;100663.56;;;4.61;96.70
72262;BME280;60173;52.112;8.648;2023-01-31T13:41:03;100665.91;;;4.79;96.89
72262;BME280;60173;52.112;8.648;2023-01-31T13:43:30;100654.69;;;4.87;96.14
72262;BME280;60173;52.112;8.648;2023-01-31T13:46:03;100661.22;;;4.96;95.47
72262;BME280;60173;52.112;8.648;2023-01-31T13:48:36;100645.78;;;4.87;96.03
72262;BME280;60173;52.112;8.648;2023-01-31T13:51:18;100648.22;;;4.88;96.02
72262;BME280;60173;52.112;8.648;2023-01-31T13:54:12;100645.06;;;4.96;95.71
72262;BME280;60173;52.112;8.648;2023-01-31T13:56:41;100632.13;;;4.93;96.06
72262;BME280;60173;52.112;8.648;2023-01-31T13:59:09;100638.38;;;4.99;96.04
72262;BME280;60173;52.112;8.648;2023-01-31T14:01:44;100634.75;;;4.88;96.02
72262;BME280;60173;52.112;8.648;2023-01-31T14:07:12;100619.59;;;4.77;96.90
72262;BME280;60173;52.112;8.648;2023-01-31T14:14:49;100620.50;;;4.88;96.46
72262;BME280;60173;52.112;8.648;2023-01-31T14:22:40;100626.09;;;4.81;96.99
72262;BME280;60173;52.112;8.648;2023-01-31T14:27:59;100620.97;;;4.80;97.50
72262;BME280;60173;52.112;8.648;2023-01-31T14:39:03;100628.88;;;4.91;96.95
72262;BME280;60173;52.112;8.648;2023-01-31T14:47:26;100620.88;;;5.02;96.93
72262;BME280;60173;52.112;8.648;2023-01-31T14:58:20;100635.38;;;4.95;97.59
72262;BME280;60173;52.112;8.648;2023-01-31T15:00:55;100627.38;;;5.06;97.56
72262;BME280;60173;52.112;8.648;2023-01-31T15:03:23;100635.44;;;5.06;97.25